Racecast

Samantha Spindler

Rock Canyon (CO) · 12 · CONTINENTALCO D5A5A · Compare head to head

Athlete rating 122.7 2017 XC season
Best race 127.2 TF
Races 35
Seasons 5 2014 — 2018

RankedNation #9428·CO #372·CO D5A #250·CONTINENTAL #49·Team #14 ?

Speed rating — all races

Cross Country

XC speed rating

2017 XC 121.2

Rock Canyon (CO) · Grade 12

Date Meet Event Result Place Rating Difficulty PR/SR Flags
2017-10-28 Norris Penrose Event Center 5000m 20:50.4 127th · 7th on team 124.5 +0.067 ★CR R CSR RSR
2017-10-19 Monument Valley Park 5000m 20:37.7 42nd · 7th on team 123.2 +0.031 ★CR R CSR RSR
2017-09-30 Polson Ranch 5000m 21:17 47th · 8th on team 121.5 +0.040 ★CR CSR
2017-09-23 Viele Lake XC Course 5000m 20:44 52nd · 2nd on team 121.9 +0.042 ★CR R CSR RSR
2017-09-16 Rock Canyon Invitational Course 5000m 20:37 29th · 4th on team 121.4 +0.032 ★PR ★CR SR CSR
2017-09-08 Heritage High School 5000m 21:01 91st · 6th on team 117.3 -0.001 SR CSR
2017-09-01 Julia deKoevend Park 5000m 21:20 45th · 4th on team 121.4 +0.054 ★CR R SR CSR RSR
2017-08-25 Mountain Vista High School 3218m 13:46 46th · 7th on team 118.5 +0.067 ★PR ★CR SR CSR RSR

2016 XC 116.5

Rock Canyon (CO) · Grade 11

Date Meet Event Result Place Rating Difficulty PR/SR Flags
2016-11-19 Grande Sports Complex 5000m 20:55 135th · 7th on team 119.6 +0.004 PR ★CR SR CSR
2016-10-20 Monument Valley Park 5000m 21:55.6 67th · 9th on team 116.2 +0.031 CR CSR
2016-10-07 Northwest Open Space 5000m 21:27 18th · 1st on team 117.8 +0.020 ★CR CSR
2016-09-23 Clement Park 5000m 23:27 128th · 8th on team 109.1 +0.030 ★CR CSR
2016-09-17 Rock Canyon Invitational Course 5000m 21:12 43rd · 6th on team 119.9 +0.032 CR R CSR RSR
2016-09-09 Heritage High School 5000m 20:56 81st · 6th on team 118.8 -0.001 PR ★CR R SR CSR RSR
2016-09-02 Julia deKoevend Park 5000m 22:39 72nd · 6th on team 114.1 +0.054 CR SR CSR RSR

2015 XC 111.5

Rock Canyon (CO) · Grade 10

Date Meet Event Result Place Rating Difficulty PR/SR Flags
2015-11-21 Grande Sports Complex 5000m 21:56 206th · 4th on team 113.3 +0.004 CR SR CSR RSR
2015-10-10 Englewood HS 5000m 23:21 53rd · 3rd on team 107.9 +0.007 CSR
2015-10-03 Polson Ranch 5000m 22:56.3 31st · 3rd on team 111.1 +0.040 CR CSR
2015-09-19 Rock Canyon Invitational Course 5000m 22:32 87th · 6th on team 112.9 +0.032 CR CSR RSR
2015-09-11 Heritage High School 5000m 22:07 43rd · 2nd on team 111.9 -0.001 SR CSR
2015-09-04 Julia deKoevend Park 5000m 23:09 42nd · 1st on team 112.1 +0.054 CR SR CSR RSR
2015-08-28 Norris Penrose Event Center 5000m 23:38.3 70th · 8th on team 111.1 +0.067 CR SR CSR RSR

2014 XC 112.6

Rock Canyon (CO) · Grade 9

Date Meet Event Result Place Rating Difficulty PR/SR Flags
2014-10-04 Englewood HS 5000m 22:19 55th · 4th on team 111.6 +0.007 ★CR CSR
2014-09-12 Heritage High School 5000m 21:21 26th · 6th on team 113.7 -0.001 PR CR R SR CSR RSR

Track & Field

TF speed rating

2018 TF 123.4

Rock Canyon (CO) · Grade 12

Date Meet Event Result Place Rating Difficulty PR/SR Flags
2018-05-10 Continental League Championships 800m 2:29.75 12th · 1st on team 127.2 -0.003 ★PR ★R SR RSR
2018-04-28 Liberty Bell Invitational 800m 2:31.35 15th · 2nd on team 123.9 -0.015 PR SR
2018-04-21 Dakota Ridge Invitational 1600m 5:42.95 12th · 1st on team 123.5 -0.011 ★PR SR
2018-04-14 Pomona Invite 800m 2:32.97 18th · 1st on team 124.7 -0.011 PR R SR RSR
2018-03-24 Broomfield Shootout 800m 2:37.1 33rd · 1st on team 119.8 -0.012
2018-03-17 Coyote Warrior Invitational 800m 2:35.49 11th · 1st on team 121.4 -0.012 SR RSR

2017 TF 120.0

Rock Canyon (CO) · Grade 11

Date Meet Event Result Place Rating Difficulty PR/SR Flags
2017-05-06 Cherry Creek Invitational 800m 2:38.95 26th · 2nd on team 117.9 -0.014
2017-04-22 Dakota Ridge Invitational 800m 2:34.2 22nd · 1st on team 121.4 -0.011 PR R SR RSR
2017-04-15 Pomona Invite 800m 2:35.55 35th · 2nd on team 120.8 -0.011 PR R SR RSR

2016 TF 115.7

Rock Canyon (CO) · Grade 10

Date Meet Event Result Place Rating Difficulty PR/SR Flags
2016-04-23 Liberty Bell Invite 800m 2:40.71 37th · 2nd on team 116.4 -0.015 PR R SR RSR
2016-04-02 Altitude Running Invitational 800m 2:42.47 16th · 1st on team 115.0 -0.011 PR R SR RSR